sensor_id;sensor_type;location;lat;lon;timestamp;P1;durP1;ratioP1;P2;durP2;ratioP2
44899;SDS011;30628;51.188;6.770;2023-08-24T00:00:44;7.13;;;5.45;;
44899;SDS011;30628;51.188;6.770;2023-08-24T00:03:10;7.72;;;5.10;;
44899;SDS011;30628;51.188;6.770;2023-08-24T00:05:36;7.72;;;5.70;;
44899;SDS011;30628;51.188;6.770;2023-08-24T00:08:06;7.03;;;6.32;;
44899;SDS011;30628;51.188;6.770;2023-08-24T00:10:33;8.88;;;6.00;;
44899;SDS011;30628;51.188;6.770;2023-08-24T00:12:59;7.78;;;5.50;;
44899;SDS011;30628;51.188;6.770;2023-08-24T00:15:25;8.82;;;6.18;;
44899;SDS011;30628;51.188;6.770;2023-08-24T00:17:51;8.82;;;5.80;;
44899;SDS011;30628;51.188;6.770;2023-08-24T00:20:17;8.05;;;5.60;;
44899;SDS011;30628;51.188;6.770;2023-08-24T00:22:42;8.63;;;5.80;;
44899;SDS011;30628;51.188;6.770;2023-08-24T00:25:08;10.18;;;5.68;;
44899;SDS011;30628;51.188;6.770;2023-08-24T00:27:35;6.38;;;5.60;;
44899;SDS011;30628;51.188;6.770;2023-08-24T00:30:04;8.68;;;5.90;;
44899;SDS011;30628;51.188;6.770;2023-08-24T00:32:35;6.25;;;5.63;;
44899;SDS011;30628;51.188;6.770;2023-08-24T00:35:04;7.40;;;5.53;;
44899;SDS011;30628;51.188;6.770;2023-08-24T00:37:31;7.18;;;5.90;;
44899;SDS011;30628;51.188;6.770;2023-08-24T00:40:01;6.85;;;5.15;;
44899;SDS011;30628;51.188;6.770;2023-08-24T00:42:36;9.35;;;5.97;;
44899;SDS011;30628;51.188;6.770;2023-08-24T00:45:25;8.68;;;6.03;;
44899;SDS011;30628;51.188;6.770;2023-08-24T00:47:50;7.38;;;6.05;;
44899;SDS011;30628;51.188;6.770;2023-08-24T00:50:17;8.65;;;5.93;;
44899;SDS011;30628;51.188;6.770;2023-08-24T00:52:46;8.80;;;6.18;;
44899;SDS011;30628;51.188;6.770;2023-08-24T00:55:13;8.13;;;6.10;;
44899;SDS011;30628;51.188;6.770;2023-08-24T00:57:41;6.63;;;5.75;;
44899;SDS011;30628;51.188;6.770;2023-08-24T01:00:07;9.48;;;6.43;;
44899;SDS011;30628;51.188;6.770;2023-08-24T01:02:53;8.52;;;6.60;;
44899;SDS011;30628;51.188;6.770;2023-08-24T01:05:18;7.90;;;6.25;;
44899;SDS011;30628;51.188;6.770;2023-08-24T01:07:44;7.93;;;6.50;;
44899;SDS011;30628;51.188;6.770;2023-08-24T01:10:10;10.25;;;6.80;;
44899;SDS011;30628;51.188;6.770;2023-08-24T01:15:20;7.93;;;6.47;;
44899;SDS011;30628;51.188;6.770;2023-08-24T01:17:47;8.25;;;6.43;;
44899;SDS011;30628;51.188;6.770;2023-08-24T01:20:15;8.00;;;6.05;;
44899;SDS011;30628;51.188;6.770;2023-08-24T01:25:24;7.82;;;5.88;;
44899;SDS011;30628;51.188;6.770;2023-08-24T01:28:07;7.85;;;6.10;;
44899;SDS011;30628;51.188;6.770;2023-08-24T01:30:34;6.85;;;6.13;;
44899;SDS011;30628;51.188;6.770;2023-08-24T01:33:02;8.65;;;6.60;;
44899;SDS011;30628;51.188;6.770;2023-08-24T01:35:29;9.30;;;6.50;;
44899;SDS011;30628;51.188;6.770;2023-08-24T01:37:56;9.70;;;6.15;;
44899;SDS011;30628;51.188;6.770;2023-08-24T01:40:29;8.35;;;6.53;;
44899;SDS011;30628;51.188;6.770;2023-08-24T01:43:04;9.00;;;6.65;;
44899;SDS011;30628;51.188;6.770;2023-08-24T01:45:32;8.95;;;6.05;;
44899;SDS011;30628;51.188;6.770;2023-08-24T01:48:02;10.98;;;6.30;;
44899;SDS011;30628;51.188;6.770;2023-08-24T01:50:29;9.45;;;7.00;;
44899;SDS011;30628;51.188;6.770;2023-08-24T01:52:56;10.18;;;6.35;;
44899;SDS011;30628;51.188;6.770;2023-08-24T01:55:22;6.88;;;6.07;;
44899;SDS011;30628;51.188;6.770;2023-08-24T01:57:48;8.68;;;6.05;;
44899;SDS011;30628;51.188;6.770;2023-08-24T02:00:14;7.20;;;5.80;;
44899;SDS011;30628;51.188;6.770;2023-08-24T02:02:44;7.88;;;5.95;;
44899;SDS011;30628;51.188;6.770;2023-08-24T02:05:09;8.70;;;5.38;;
44899;SDS011;30628;51.188;6.770;2023-08-24T02:07:35;7.03;;;5.05;;
44899;SDS011;30628;51.188;6.770;2023-08-24T02:10:01;6.15;;;5.30;;
44899;SDS011;30628;51.188;6.770;2023-08-24T02:12:27;5.63;;;5.00;;
44899;SDS011;30628;51.188;6.770;2023-08-24T02:14:52;7.00;;;4.95;;
44899;SDS011;30628;51.188;6.770;2023-08-24T02:17:18;7.47;;;5.75;;
44899;SDS011;30628;51.188;6.770;2023-08-24T02:19:43;7.47;;;5.55;;
44899;SDS011;30628;51.188;6.770;2023-08-24T02:22:09;6.68;;;6.07;;
44899;SDS011;30628;51.188;6.770;2023-08-24T02:24:34;7.38;;;5.82;;
44899;SDS011;30628;51.188;6.770;2023-08-24T02:27:00;6.05;;;5.07;;
44899;SDS011;30628;51.188;6.770;2023-08-24T02:29:26;8.55;;;6.03;;
44899;SDS011;30628;51.188;6.770;2023-08-24T02:31:52;7.45;;;5.43;;
44899;SDS011;30628;51.188;6.770;2023-08-24T02:34:18;8.55;;;5.35;;
44899;SDS011;30628;51.188;6.770;2023-08-24T02:36:43;7.25;;;5.70;;
44899;SDS011;30628;51.188;6.770;2023-08-24T02:39:09;8.15;;;5.70;;
44899;SDS011;30628;51.188;6.770;2023-08-24T02:41:35;7.35;;;5.72;;
44899;SDS011;30628;51.188;6.770;2023-08-24T02:44:01;9.32;;;6.22;;
44899;SDS011;30628;51.188;6.770;2023-08-24T02:46:27;8.20;;;5.78;;
44899;SDS011;30628;51.188;6.770;2023-08-24T02:48:53;7.88;;;5.90;;
44899;SDS011;30628;51.188;6.770;2023-08-24T02:51:21;7.30;;;5.72;;
44899;SDS011;30628;51.188;6.770;2023-08-24T02:53:47;7.15;;;5.72;;
44899;SDS011;30628;51.188;6.770;2023-08-24T02:56:13;8.85;;;6.13;;
44899;SDS011;30628;51.188;6.770;2023-08-24T02:58:39;6.38;;;5.57;;
44899;SDS011;30628;51.188;6.770;2023-08-24T03:01:05;8.63;;;6.15;;
44899;SDS011;30628;51.188;6.770;2023-08-24T03:03:32;9.40;;;5.22;;
44899;SDS011;30628;51.188;6.770;2023-08-24T03:05:59;6.10;;;5.50;;
44899;SDS011;30628;51.188;6.770;2023-08-24T03:08:26;7.60;;;5.63;;
44899;SDS011;30628;51.188;6.770;2023-08-24T03:10:52;5.75;;;5.22;;
44899;SDS011;30628;51.188;6.770;2023-08-24T03:13:18;8.85;;;5.55;;
44899;SDS011;30628;51.188;6.770;2023-08-24T03:15:44;7.80;;;5.90;;
44899;SDS011;30628;51.188;6.770;2023-08-24T03:18:11;8.23;;;5.78;;
44899;SDS011;30628;51.188;6.770;2023-08-24T03:20:38;7.65;;;5.97;;
44899;SDS011;30628;51.188;6.770;2023-08-24T03:23:03;10.18;;;5.70;;
44899;SDS011;30628;51.188;6.770;2023-08-24T03:25:30;6.88;;;5.78;;
44899;SDS011;30628;51.188;6.770;2023-08-24T03:28:00;7.55;;;5.57;;
44899;SDS011;30628;51.188;6.770;2023-08-24T03:30:26;7.05;;;5.38;;
44899;SDS011;30628;51.188;6.770;2023-08-24T03:32:52;8.00;;;5.80;;
44899;SDS011;30628;51.188;6.770;2023-08-24T03:35:18;7.40;;;5.50;;
44899;SDS011;30628;51.188;6.770;2023-08-24T03:37:51;7.07;;;5.07;;
44899;SDS011;30628;51.188;6.770;2023-08-24T03:40:17;5.97;;;5.30;;
44899;SDS011;30628;51.188;6.770;2023-08-24T03:42:42;6.30;;;5.65;;
44899;SDS011;30628;51.188;6.770;2023-08-24T03:45:08;7.60;;;5.03;;
44899;SDS011;30628;51.188;6.770;2023-08-24T03:47:34;4.50;;;3.60;;
44899;SDS011;30628;51.188;6.770;2023-08-24T03:50:00;6.70;;;4.90;;
44899;SDS011;30628;51.188;6.770;2023-08-24T03:52:25;5.57;;;5.10;;
44899;SDS011;30628;51.188;6.770;2023-08-24T03:54:51;5.28;;;4.78;;
44899;SDS011;30628;51.188;6.770;2023-08-24T03:57:17;6.95;;;5.03;;
44899;SDS011;30628;51.188;6.770;2023-08-24T03:59:43;8.40;;;5.65;;
44899;SDS011;30628;51.188;6.770;2023-08-24T04:02:08;8.45;;;5.40;;
44899;SDS011;30628;51.188;6.770;2023-08-24T04:04:34;6.60;;;5.45;;
44899;SDS011;30628;51.188;6.770;2023-08-24T04:07:00;7.10;;;5.22;;
44899;SDS011;30628;51.188;6.770;2023-08-24T04:09:27;8.05;;;5.55;;
44899;SDS011;30628;51.188;6.770;2023-08-24T04:11:53;7.28;;;5.32;;
44899;SDS011;30628;51.188;6.770;2023-08-24T04:14:18;8.00;;;6.05;;
44899;SDS011;30628;51.188;6.770;2023-08-24T04:16:44;7.82;;;5.60;;
44899;SDS011;30628;51.188;6.770;2023-08-24T04:19:10;7.97;;;5.50;;
44899;SDS011;30628;51.188;6.770;2023-08-24T04:21:35;6.40;;;5.43;;
44899;SDS011;30628;51.188;6.770;2023-08-24T04:24:01;8.38;;;6.65;;
44899;SDS011;30628;51.188;6.770;2023-08-24T04:26:27;7.55;;;6.13;;
44899;SDS011;30628;51.188;6.770;2023-08-24T04:28:53;8.48;;;6.25;;
44899;SDS011;30628;51.188;6.770;2023-08-24T04:31:18;7.30;;;5.75;;
44899;SDS011;30628;51.188;6.770;2023-08-24T04:33:44;7.50;;;5.40;;
44899;SDS011;30628;51.188;6.770;2023-08-24T04:36:09;7.82;;;6.03;;
44899;SDS011;30628;51.188;6.770;2023-08-24T04:38:35;9.40;;;6.05;;
44899;SDS011;30628;51.188;6.770;2023-08-24T04:41:02;8.05;;;5.82;;
44899;SDS011;30628;51.188;6.770;2023-08-24T04:43:32;7.22;;;5.43;;
44899;SDS011;30628;51.188;6.770;2023-08-24T04:45:58;5.53;;;4.95;;
44899;SDS011;30628;51.188;6.770;2023-08-24T04:48:24;8.35;;;6.25;;
44899;SDS011;30628;51.188;6.770;2023-08-24T04:50:51;6.07;;;5.47;;
44899;SDS011;30628;51.188;6.770;2023-08-24T04:53:18;8.88;;;5.85;;
44899;SDS011;30628;51.188;6.770;2023-08-24T04:55:45;7.43;;;5.50;;
44899;SDS011;30628;51.188;6.770;2023-08-24T04:58:11;8.10;;;6.10;;
44899;SDS011;30628;51.188;6.770;2023-08-24T05:00:52;8.07;;;6.10;;
44899;SDS011;30628;51.188;6.770;2023-08-24T05:03:18;5.93;;;5.22;;
44899;SDS011;30628;51.188;6.770;2023-08-24T05:05:44;8.15;;;5.13;;
44899;SDS011;30628;51.188;6.770;2023-08-24T05:08:10;8.68;;;6.20;;
44899;SDS011;30628;51.188;6.770;2023-08-24T05:10:36;9.30;;;6.13;;
44899;SDS011;30628;51.188;6.770;2023-08-24T05:13:01;8.60;;;5.57;;
44899;SDS011;30628;51.188;6.770;2023-08-24T05:15:27;9.65;;;6.15;;
44899;SDS011;30628;51.188;6.770;2023-08-24T05:17:53;6.85;;;5.97;;
44899;SDS011;30628;51.188;6.770;2023-08-24T05:20:21;8.02;;;6.55;;
44899;SDS011;30628;51.188;6.770;2023-08-24T05:22:47;7.85;;;6.63;;
44899;SDS011;30628;51.188;6.770;2023-08-24T05:25:13;8.38;;;6.20;;
44899;SDS011;30628;51.188;6.770;2023-08-24T05:27:41;7.95;;;6.22;;
44899;SDS011;30628;51.188;6.770;2023-08-24T05:30:07;8.65;;;5.72;;
44899;SDS011;30628;51.188;6.770;2023-08-24T05:32:34;8.90;;;6.25;;
44899;SDS011;30628;51.188;6.770;2023-08-24T05:35:06;6.95;;;6.13;;
44899;SDS011;30628;51.188;6.770;2023-08-24T05:37:33;7.75;;;6.65;;
44899;SDS011;30628;51.188;6.770;2023-08-24T05:39:59;9.73;;;6.90;;
44899;SDS011;30628;51.188;6.770;2023-08-24T05:42:26;7.47;;;6.68;;
44899;SDS011;30628;51.188;6.770;2023-08-24T05:44:51;9.95;;;7.22;;
44899;SDS011;30628;51.188;6.770;2023-08-24T05:47:17;7.70;;;6.47;;
44899;SDS011;30628;51.188;6.770;2023-08-24T05:49:43;7.82;;;7.03;;
44899;SDS011;30628;51.188;6.770;2023-08-24T05:52:08;8.20;;;5.82;;
44899;SDS011;30628;51.188;6.770;2023-08-24T05:54:36;5.93;;;5.35;;
44899;SDS011;30628;51.188;6.770;2023-08-24T05:57:02;7.43;;;6.70;;
44899;SDS011;30628;51.188;6.770;2023-08-24T05:59:28;8.05;;;6.60;;
44899;SDS011;30628;51.188;6.770;2023-08-24T06:01:54;7.28;;;6.57;;
44899;SDS011;30628;51.188;6.770;2023-08-24T06:04:20;8.73;;;6.88;;
44899;SDS011;30628;51.188;6.770;2023-08-24T06:06:46;7.13;;;6.38;;
44899;SDS011;30628;51.188;6.770;2023-08-24T06:09:11;6.78;;;5.97;;
44899;SDS011;30628;51.188;6.770;2023-08-24T06:11:37;7.18;;;6.18;;
44899;SDS011;30628;51.188;6.770;2023-08-24T06:14:03;7.95;;;6.75;;
44899;SDS011;30628;51.188;6.770;2023-08-24T06:16:29;5.65;;;4.35;;
44899;SDS011;30628;51.188;6.770;2023-08-24T06:18:54;10.45;;;7.32;;
44899;SDS011;30628;51.188;6.770;2023-08-24T06:21:20;7.40;;;6.22;;
44899;SDS011;30628;51.188;6.770;2023-08-24T06:23:46;7.03;;;5.90;;
44899;SDS011;30628;51.188;6.770;2023-08-24T06:26:12;9.82;;;8.20;;
44899;SDS011;30628;51.188;6.770;2023-08-24T06:28:39;9.70;;;8.10;;
44899;SDS011;30628;51.188;6.770;2023-08-24T06:31:05;10.43;;;7.50;;
44899;SDS011;30628;51.188;6.770;2023-08-24T06:33:33;6.95;;;6.30;;
44899;SDS011;30628;51.188;6.770;2023-08-24T06:35:59;9.70;;;8.30;;
44899;SDS011;30628;51.188;6.770;2023-08-24T06:38:26;10.55;;;8.30;;
44899;SDS011;30628;51.188;6.770;2023-08-24T06:40:51;9.68;;;7.05;;
44899;SDS011;30628;51.188;6.770;2023-08-24T06:43:17;10.63;;;7.60;;
44899;SDS011;30628;51.188;6.770;2023-08-24T06:45:46;12.77;;;7.93;;
44899;SDS011;30628;51.188;6.770;2023-08-24T06:48:12;9.35;;;7.18;;
44899;SDS011;30628;51.188;6.770;2023-08-24T06:50:37;5.03;;;4.30;;
44899;SDS011;30628;51.188;6.770;2023-08-24T06:53:03;7.88;;;4.70;;
44899;SDS011;30628;51.188;6.770;2023-08-24T06:55:29;7.32;;;6.30;;
44899;SDS011;30628;51.188;6.770;2023-08-24T06:57:56;9.02;;;6.63;;
44899;SDS011;30628;51.188;6.770;2023-08-24T07:00:22;5.07;;;3.67;;
44899;SDS011;30628;51.188;6.770;2023-08-24T07:02:48;6.90;;;6.07;;
44899;SDS011;30628;51.188;6.770;2023-08-24T07:05:16;8.15;;;6.10;;
44899;SDS011;30628;51.188;6.770;2023-08-24T07:07:45;4.50;;;4.03;;
44899;SDS011;30628;51.188;6.770;2023-08-24T07:10:12;5.43;;;3.90;;
44899;SDS011;30628;51.188;6.770;2023-08-24T07:12:38;6.40;;;4.35;;
44899;SDS011;30628;51.188;6.770;2023-08-24T07:15:07;5.57;;;5.00;;
44899;SDS011;30628;51.188;6.770;2023-08-24T07:17:33;5.95;;;3.97;;
44899;SDS011;30628;51.188;6.770;2023-08-24T07:19:59;5.05;;;4.55;;
44899;SDS011;30628;51.188;6.770;2023-08-24T07:22:24;3.90;;;3.55;;
44899;SDS011;30628;51.188;6.770;2023-08-24T07:24:52;3.83;;;3.38;;
44899;SDS011;30628;51.188;6.770;2023-08-24T07:27:18;4.80;;;4.40;;
44899;SDS011;30628;51.188;6.770;2023-08-24T07:29:44;6.13;;;4.95;;
44899;SDS011;30628;51.188;6.770;2023-08-24T07:32:10;6.32;;;4.38;;
44899;SDS011;30628;51.188;6.770;2023-08-24T07:34:36;3.85;;;3.50;;
44899;SDS011;30628;51.188;6.770;2023-08-24T07:37:01;4.87;;;3.97;;
44899;SDS011;30628;51.188;6.770;2023-08-24T07:39:27;4.57;;;3.78;;
44899;SDS011;30628;51.188;6.770;2023-08-24T07:41:53;4.22;;;3.83;;
44899;SDS011;30628;51.188;6.770;2023-08-24T07:44:19;4.25;;;3.85;;
44899;SDS011;30628;51.188;6.770;2023-08-24T07:46:47;5.97;;;4.20;;
44899;SDS011;30628;51.188;6.770;2023-08-24T07:49:20;4.68;;;4.13;;
44899;SDS011;30628;51.188;6.770;2023-08-24T07:51:46;4.82;;;3.55;;
44899;SDS011;30628;51.188;6.770;2023-08-24T07:54:12;3.17;;;2.88;;
44899;SDS011;30628;51.188;6.770;2023-08-24T07:56:38;5.60;;;4.03;;
44899;SDS011;30628;51.188;6.770;2023-08-24T07:59:04;4.60;;;3.58;;
44899;SDS011;30628;51.188;6.770;2023-08-24T08:01:29;4.35;;;3.95;;
44899;SDS011;30628;51.188;6.770;2023-08-24T08:03:55;5.28;;;3.65;;
44899;SDS011;30628;51.188;6.770;2023-08-24T08:06:21;3.53;;;3.22;;
44899;SDS011;30628;51.188;6.770;2023-08-24T08:08:49;3.53;;;3.03;;
44899;SDS011;30628;51.188;6.770;2023-08-24T08:11:16;3.20;;;2.90;;
44899;SDS011;30628;51.188;6.770;2023-08-24T08:13:42;3.97;;;3.40;;
44899;SDS011;30628;51.188;6.770;2023-08-24T08:16:07;3.63;;;3.33;;
44899;SDS011;30628;51.188;6.770;2023-08-24T08:18:34;2.72;;;2.53;;
44899;SDS011;30628;51.188;6.770;2023-08-24T08:21:01;4.28;;;3.60;;
44899;SDS011;30628;51.188;6.770;2023-08-24T08:23:33;5.10;;;3.35;;
44899;SDS011;30628;51.188;6.770;2023-08-24T08:25:58;3.63;;;3.00;;
44899;SDS011;30628;51.188;6.770;2023-08-24T08:28:24;4.85;;;3.63;;
44899;SDS011;30628;51.188;6.770;2023-08-24T08:30:50;4.50;;;2.83;;
44899;SDS011;30628;51.188;6.770;2023-08-24T08:33:15;5.32;;;3.47;;
44899;SDS011;30628;51.188;6.770;2023-08-24T08:35:41;4.18;;;3.45;;
44899;SDS011;30628;51.188;6.770;2023-08-24T08:38:07;3.33;;;2.95;;
44899;SDS011;30628;51.188;6.770;2023-08-24T08:40:38;4.30;;;3.85;;
44899;SDS011;30628;51.188;6.770;2023-08-24T08:43:05;4.35;;;3.08;;
44899;SDS011;30628;51.188;6.770;2023-08-24T08:45:31;3.05;;;2.80;;
44899;SDS011;30628;51.188;6.770;2023-08-24T08:47:58;3.17;;;2.88;;
44899;SDS011;30628;51.188;6.770;2023-08-24T08:50:26;4.25;;;3.28;;
44899;SDS011;30628;51.188;6.770;2023-08-24T08:52:51;4.88;;;3.25;;
44899;SDS011;30628;51.188;6.770;2023-08-24T08:55:17;4.90;;;2.85;;
44899;SDS011;30628;51.188;6.770;2023-08-24T08:57:44;2.50;;;2.33;;
44899;SDS011;30628;51.188;6.770;2023-08-24T09:00:13;3.40;;;3.00;;
44899;SDS011;30628;51.188;6.770;2023-08-24T09:02:42;3.65;;;3.35;;
44899;SDS011;30628;51.188;6.770;2023-08-24T09:05:18;3.97;;;3.30;;
44899;SDS011;30628;51.188;6.770;2023-08-24T09:07:45;3.17;;;2.78;;
44899;SDS011;30628;51.188;6.770;2023-08-24T09:10:12;2.88;;;2.67;;
44899;SDS011;30628;51.188;6.770;2023-08-24T09:12:38;4.45;;;3.05;;
44899;SDS011;30628;51.188;6.770;2023-08-24T09:15:04;3.88;;;3.05;;
44899;SDS011;30628;51.188;6.770;2023-08-24T09:17:31;5.57;;;3.13;;
44899;SDS011;30628;51.188;6.770;2023-08-24T09:19:58;3.30;;;2.92;;
44899;SDS011;30628;51.188;6.770;2023-08-24T09:22:24;3.47;;;2.92;;
44899;SDS011;30628;51.188;6.770;2023-08-24T09:24:50;3.15;;;2.85;;
44899;SDS011;30628;51.188;6.770;2023-08-24T09:27:19;4.97;;;3.65;;
44899;SDS011;30628;51.188;6.770;2023-08-24T09:29:49;6.95;;;3.15;;
44899;SDS011;30628;51.188;6.770;2023-08-24T09:32:21;7.13;;;3.25;;
44899;SDS011;30628;51.188;6.770;2023-08-24T09:34:48;3.47;;;3.15;;
44899;SDS011;30628;51.188;6.770;2023-08-24T09:37:15;3.67;;;3.20;;
44899;SDS011;30628;51.188;6.770;2023-08-24T09:39:41;3.13;;;2.63;;
44899;SDS011;30628;51.188;6.770;2023-08-24T09:42:07;2.78;;;2.58;;
44899;SDS011;30628;51.188;6.770;2023-08-24T09:44:32;3.92;;;2.75;;
44899;SDS011;30628;51.188;6.770;2023-08-24T09:46:58;4.70;;;3.60;;
44899;SDS011;30628;51.188;6.770;2023-08-24T09:49:24;2.50;;;2.30;;
44899;SDS011;30628;51.188;6.770;2023-08-24T09:51:51;3.10;;;2.80;;
44899;SDS011;30628;51.188;6.770;2023-08-24T09:54:22;2.72;;;2.53;;
44899;SDS011;30628;51.188;6.770;2023-08-24T09:56:52;5.65;;;3.63;;
44899;SDS011;30628;51.188;6.770;2023-08-24T09:59:22;3.95;;;3.10;;
44899;SDS011;30628;51.188;6.770;2023-08-24T10:01:50;3.20;;;2.65;;
44899;SDS011;30628;51.188;6.770;2023-08-24T10:04:28;5.03;;;3.25;;
44899;SDS011;30628;51.188;6.770;2023-08-24T10:06:59;3.88;;;3.20;;
44899;SDS011;30628;51.188;6.770;2023-08-24T10:09:35;3.75;;;2.92;;
44899;SDS011;30628;51.188;6.770;2023-08-24T10:12:05;3.00;;;2.70;;
44899;SDS011;30628;51.188;6.770;2023-08-24T10:17:22;4.38;;;3.40;;
44899;SDS011;30628;51.188;6.770;2023-08-24T10:19:48;2.90;;;2.60;;
44899;SDS011;30628;51.188;6.770;2023-08-24T10:22:19;4.10;;;2.85;;
44899;SDS011;30628;51.188;6.770;2023-08-24T10:24:46;3.50;;;3.20;;
44899;SDS011;30628;51.188;6.770;2023-08-24T10:27:13;4.68;;;3.10;;
44899;SDS011;30628;51.188;6.770;2023-08-24T10:29:39;3.30;;;2.92;;
44899;SDS011;30628;51.188;6.770;2023-08-24T10:32:05;3.70;;;3.10;;
44899;SDS011;30628;51.188;6.770;2023-08-24T10:34:32;3.72;;;3.20;;
44899;SDS011;30628;51.188;6.770;2023-08-24T10:37:06;3.53;;;3.20;;
44899;SDS011;30628;51.188;6.770;2023-08-24T10:39:35;4.95;;;2.85;;
44899;SDS011;30628;51.188;6.770;2023-08-24T10:42:03;3.78;;;3.10;;
44899;SDS011;30628;51.188;6.770;2023-08-24T10:44:35;4.57;;;3.40;;
44899;SDS011;30628;51.188;6.770;2023-08-24T10:47:20;2.63;;;2.42;;
44899;SDS011;30628;51.188;6.770;2023-08-24T10:54:54;3.45;;;2.95;;
44899;SDS011;30628;51.188;6.770;2023-08-24T11:02:48;3.72;;;3.00;;
44899;SDS011;30628;51.188;6.770;2023-08-24T11:15:48;2.80;;;2.58;;
44899;SDS011;30628;51.188;6.770;2023-08-24T11:18:26;4.18;;;3.20;;
44899;SDS011;30628;51.188;6.770;2023-08-24T11:21:04;2.88;;;2.67;;
44899;SDS011;30628;51.188;6.770;2023-08-24T11:23:33;2.90;;;2.60;;
44899;SDS011;30628;51.188;6.770;2023-08-24T11:26:00;3.42;;;3.00;;
44899;SDS011;30628;51.188;6.770;2023-08-24T11:28:26;3.30;;;3.00;;
44899;SDS011;30628;51.188;6.770;2023-08-24T11:30:53;3.25;;;2.95;;
44899;SDS011;30628;51.188;6.770;2023-08-24T11:33:27;3.53;;;2.47;;
44899;SDS011;30628;51.188;6.770;2023-08-24T11:35:56;2.20;;;2.05;;
44899;SDS011;30628;51.188;6.770;2023-08-24T11:38:23;3.50;;;2.72;;
44899;SDS011;30628;51.188;6.770;2023-08-24T11:40:49;3.22;;;2.92;;
44899;SDS011;30628;51.188;6.770;2023-08-24T11:43:24;2.70;;;2.50;;
44899;SDS011;30628;51.188;6.770;2023-08-24T11:45:53;4.13;;;3.00;;
44899;SDS011;30628;51.188;6.770;2023-08-24T11:48:26;3.45;;;2.63;;
44899;SDS011;30628;51.188;6.770;2023-08-24T11:50:54;2.90;;;2.30;;
44899;SDS011;30628;51.188;6.770;2023-08-24T11:53:20;4.38;;;3.00;;
44899;SDS011;30628;51.188;6.770;2023-08-24T11:55:47;3.60;;;2.50;;
44899;SDS011;30628;51.188;6.770;2023-08-24T11:58:13;4.10;;;2.55;;
44899;SDS011;30628;51.188;6.770;2023-08-24T12:00:40;3.50;;;2.20;;
44899;SDS011;30628;51.188;6.770;2023-08-24T12:03:06;4.32;;;2.97;;
44899;SDS011;30628;51.188;6.770;2023-08-24T12:05:32;3.20;;;2.55;;
44899;SDS011;30628;51.188;6.770;2023-08-24T12:07:58;5.10;;;3.20;;
44899;SDS011;30628;51.188;6.770;2023-08-24T12:10:23;4.47;;;2.58;;
44899;SDS011;30628;51.188;6.770;2023-08-24T12:12:49;6.88;;;3.17;;
44899;SDS011;30628;51.188;6.770;2023-08-24T12:15:27;2.85;;;2.50;;
44899;SDS011;30628;51.188;6.770;2023-08-24T12:17:53;5.55;;;3.15;;
44899;SDS011;30628;51.188;6.770;2023-08-24T12:20:22;6.93;;;3.00;;
44899;SDS011;30628;51.188;6.770;2023-08-24T12:22:51;4.60;;;2.83;;
44899;SDS011;30628;51.188;6.770;2023-08-24T12:25:25;2.53;;;2.28;;
44899;SDS011;30628;51.188;6.770;2023-08-24T12:27:52;4.68;;;3.00;;
44899;SDS011;30628;51.188;6.770;2023-08-24T12:30:19;4.60;;;3.25;;
44899;SDS011;30628;51.188;6.770;2023-08-24T12:32:48;7.43;;;3.45;;
44899;SDS011;30628;51.188;6.770;2023-08-24T12:35:23;5.68;;;2.78;;
44899;SDS011;30628;51.188;6.770;2023-08-24T12:37:48;5.18;;;3.40;;
44899;SDS011;30628;51.188;6.770;2023-08-24T12:40:14;5.47;;;2.80;;
44899;SDS011;30628;51.188;6.770;2023-08-24T12:42:41;3.83;;;2.80;;
44899;SDS011;30628;51.188;6.770;2023-08-24T12:45:06;5.50;;;3.30;;
44899;SDS011;30628;51.188;6.770;2023-08-24T12:47:33;6.68;;;3.28;;
44899;SDS011;30628;51.188;6.770;2023-08-24T12:50:02;3.03;;;2.33;;
44899;SDS011;30628;51.188;6.770;2023-08-24T12:52:29;5.68;;;2.83;;
44899;SDS011;30628;51.188;6.770;2023-08-24T12:54:54;3.17;;;2.40;;
44899;SDS011;30628;51.188;6.770;2023-08-24T12:57:20;6.30;;;3.20;;
44899;SDS011;30628;51.188;6.770;2023-08-24T12:59:46;6.00;;;2.97;;
44899;SDS011;30628;51.188;6.770;2023-08-24T13:02:12;5.30;;;3.40;;
44899;SDS011;30628;51.188;6.770;2023-08-24T13:04:37;7.00;;;4.30;;
44899;SDS011;30628;51.188;6.770;2023-08-24T13:07:03;6.55;;;3.90;;
44899;SDS011;30628;51.188;6.770;2023-08-24T13:09:29;4.38;;;3.28;;
44899;SDS011;30628;51.188;6.770;2023-08-24T13:11:55;4.60;;;3.60;;
44899;SDS011;30628;51.188;6.770;2023-08-24T13:14:20;6.03;;;3.72;;
44899;SDS011;30628;51.188;6.770;2023-08-24T13:16:46;4.25;;;2.83;;
44899;SDS011;30628;51.188;6.770;2023-08-24T13:19:13;5.53;;;3.30;;
44899;SDS011;30628;51.188;6.770;2023-08-24T13:21:39;5.97;;;3.70;;
44899;SDS011;30628;51.188;6.770;2023-08-24T13:24:05;5.93;;;3.95;;
44899;SDS011;30628;51.188;6.770;2023-08-24T13:26:30;6.20;;;3.53;;
44899;SDS011;30628;51.188;6.770;2023-08-24T13:28:56;8.18;;;3.70;;
44899;SDS011;30628;51.188;6.770;2023-08-24T13:31:22;6.70;;;4.05;;
44899;SDS011;30628;51.188;6.770;2023-08-24T13:33:47;6.50;;;3.47;;
44899;SDS011;30628;51.188;6.770;2023-08-24T13:36:13;5.63;;;3.25;;
44899;SDS011;30628;51.188;6.770;2023-08-24T13:38:39;5.60;;;3.38;;
44899;SDS011;30628;51.188;6.770;2023-08-24T13:41:04;3.83;;;3.10;;
44899;SDS011;30628;51.188;6.770;2023-08-24T13:43:31;7.72;;;4.85;;
44899;SDS011;30628;51.188;6.770;2023-08-24T13:45:56;4.15;;;3.60;;
44899;SDS011;30628;51.188;6.770;2023-08-24T13:48:22;5.57;;;4.20;;
44899;SDS011;30628;51.188;6.770;2023-08-24T13:50:49;5.88;;;3.90;;
44899;SDS011;30628;51.188;6.770;2023-08-24T13:53:19;6.07;;;3.33;;
44899;SDS011;30628;51.188;6.770;2023-08-24T13:55:45;8.55;;;4.57;;
44899;SDS011;30628;51.188;6.770;2023-08-24T13:58:10;5.97;;;3.88;;
44899;SDS011;30628;51.188;6.770;2023-08-24T14:00:36;5.95;;;4.30;;
44899;SDS011;30628;51.188;6.770;2023-08-24T14:03:02;4.90;;;3.97;;
44899;SDS011;30628;51.188;6.770;2023-08-24T14:05:28;4.20;;;3.78;;
44899;SDS011;30628;51.188;6.770;2023-08-24T14:07:54;5.88;;;4.22;;
44899;SDS011;30628;51.188;6.770;2023-08-24T14:10:19;7.20;;;4.05;;
44899;SDS011;30628;51.188;6.770;2023-08-24T14:12:45;6.50;;;3.75;;
44899;SDS011;30628;51.188;6.770;2023-08-24T14:15:11;12.15;;;4.80;;
44899;SDS011;30628;51.188;6.770;2023-08-24T14:17:36;18.33;;;7.00;;
44899;SDS011;30628;51.188;6.770;2023-08-24T14:20:02;15.40;;;5.75;;
44899;SDS011;30628;51.188;6.770;2023-08-24T14:22:29;16.33;;;5.22;;
44899;SDS011;30628;51.188;6.770;2023-08-24T14:24:55;9.38;;;4.50;;
44899;SDS011;30628;51.188;6.770;2023-08-24T14:27:20;9.32;;;4.85;;
44899;SDS011;30628;51.188;6.770;2023-08-24T14:29:46;7.80;;;4.40;;
44899;SDS011;30628;51.188;6.770;2023-08-24T14:32:12;8.35;;;4.20;;
44899;SDS011;30628;51.188;6.770;2023-08-24T14:34:37;7.82;;;4.13;;
44899;SDS011;30628;51.188;6.770;2023-08-24T14:37:03;7.40;;;3.72;;
44899;SDS011;30628;51.188;6.770;2023-08-24T14:39:29;5.60;;;4.30;;
44899;SDS011;30628;51.188;6.770;2023-08-24T14:41:54;7.38;;;4.45;;
44899;SDS011;30628;51.188;6.770;2023-08-24T14:44:20;9.75;;;4.03;;
44899;SDS011;30628;51.188;6.770;2023-08-24T14:46:45;7.85;;;4.32;;
44899;SDS011;30628;51.188;6.770;2023-08-24T14:49:11;8.15;;;4.10;;
44899;SDS011;30628;51.188;6.770;2023-08-24T14:51:37;7.53;;;3.72;;
44899;SDS011;30628;51.188;6.770;2023-08-24T14:54:02;7.68;;;3.40;;
44899;SDS011;30628;51.188;6.770;2023-08-24T14:56:28;4.72;;;3.03;;
44899;SDS011;30628;51.188;6.770;2023-08-24T14:58:54;6.13;;;3.33;;
44899;SDS011;30628;51.188;6.770;2023-08-24T15:01:19;6.38;;;3.72;;
44899;SDS011;30628;51.188;6.770;2023-08-24T15:03:45;5.25;;;3.05;;
44899;SDS011;30628;51.188;6.770;2023-08-24T15:06:10;8.50;;;3.35;;
44899;SDS011;30628;51.188;6.770;2023-08-24T15:08:36;6.55;;;3.67;;
44899;SDS011;30628;51.188;6.770;2023-08-24T15:11:02;5.35;;;3.30;;
44899;SDS011;30628;51.188;6.770;2023-08-24T15:13:29;5.20;;;3.13;;
44899;SDS011;30628;51.188;6.770;2023-08-24T15:15:55;5.90;;;3.45;;